sensor_id;sensor_type;location;lat;lon;timestamp;pressure;altitude;pressure_sealevel;temperature;humidity
23223;BME280;11780;13.904;100.620;2023-05-31T00:00:42;100753.88;;;30.91;75.86
23223;BME280;11780;13.904;100.620;2023-05-31T00:03:12;100745.13;;;30.89;76.10
23223;BME280;11780;13.904;100.620;2023-05-31T00:05:43;100742.38;;;30.89;76.09
23223;BME280;11780;13.904;100.620;2023-05-31T00:08:13;100749.81;;;30.89;76.27
23223;BME280;11780;13.904;100.620;2023-05-31T00:10:44;100747.22;;;30.92;76.05
23223;BME280;11780;13.904;100.620;2023-05-31T00:13:14;100747.06;;;30.97;76.03
23223;BME280;11780;13.904;100.620;2023-05-31T00:15:45;100740.06;;;31.00;76.01
23223;BME280;11780;13.904;100.620;2023-05-31T00:18:15;100745.78;;;30.95;75.99
23223;BME280;11780;13.904;100.620;2023-05-31T00:20:45;100748.69;;;30.98;76.13
23223;BME280;11780;13.904;100.620;2023-05-31T00:23:16;100751.47;;;30.98;75.97
23223;BME280;11780;13.904;100.620;2023-05-31T00:25:46;100758.63;;;30.99;75.95
23223;BME280;11780;13.904;100.620;2023-05-31T00:28:17;100754.72;;;31.01;76.04
23223;BME280;11780;13.904;100.620;2023-05-31T00:30:47;100767.25;;;30.98;75.98
23223;BME280;11780;13.904;100.620;2023-05-31T00:33:17;100767.25;;;30.98;76.38
23223;BME280;11780;13.904;100.620;2023-05-31T00:35:48;100772.06;;;30.92;76.68
23223;BME280;11780;13.904;100.620;2023-05-31T00:38:18;100777.94;;;30.91;76.61
23223;BME280;11780;13.904;100.620;2023-05-31T00:40:48;100780.06;;;31.03;76.25
23223;BME280;11780;13.904;100.620;2023-05-31T00:43:19;100781.69;;;31.04;76.29
23223;BME280;11780;13.904;100.620;2023-05-31T00:45:50;100783.81;;;30.98;76.58
23223;BME280;11780;13.904;100.620;2023-05-31T00:48:22;100787.38;;;31.07;76.40
23223;BME280;11780;13.904;100.620;2023-05-31T00:50:53;100782.00;;;31.11;76.23
23223;BME280;11780;13.904;100.620;2023-05-31T00:53:23;100780.38;;;31.10;76.53
23223;BME280;11780;13.904;100.620;2023-05-31T00:55:54;100784.16;;;31.14;76.14
23223;BME280;11780;13.904;100.620;2023-05-31T00:58:26;100783.03;;;31.15;76.07
23223;BME280;11780;13.904;100.620;2023-05-31T01:00:57;100793.44;;;31.18;76.33
23223;BME280;11780;13.904;100.620;2023-05-31T01:03:28;100789.34;;;31.16;76.83
23223;BME280;11780;13.904;100.620;2023-05-31T01:05:59;100794.56;;;31.17;76.76
23223;BME280;11780;13.904;100.620;2023-05-31T01:08:29;100801.38;;;31.20;76.60
23223;BME280;11780;13.904;100.620;2023-05-31T01:16:57;100803.66;;;31.26;76.13
23223;BME280;11780;13.904;100.620;2023-05-31T01:19:52;100799.75;;;31.27;76.29
23223;BME280;11780;13.904;100.620;2023-05-31T01:25:31;100790.34;;;31.28;75.91
23223;BME280;11780;13.904;100.620;2023-05-31T01:28:07;100787.06;;;31.26;76.08
23223;BME280;11780;13.904;100.620;2023-05-31T01:30:39;100785.94;;;31.27;75.95
23223;BME280;11780;13.904;100.620;2023-05-31T01:33:10;100787.72;;;31.23;76.08
23223;BME280;11780;13.904;100.620;2023-05-31T01:35:41;100790.50;;;31.23;75.80
23223;BME280;11780;13.904;100.620;2023-05-31T01:38:12;100796.84;;;31.24;75.83
23223;BME280;11780;13.904;100.620;2023-05-31T01:40:42;100805.28;;;31.19;75.52
23223;BME280;11780;13.904;100.620;2023-05-31T01:43:13;100803.84;;;31.21;75.25
23223;BME280;11780;13.904;100.620;2023-05-31T01:45:43;100804.16;;;31.28;75.13
23223;BME280;11780;13.904;100.620;2023-05-31T01:48:14;100806.13;;;31.28;74.71
23223;BME280;11780;13.904;100.620;2023-05-31T01:50:45;100811.16;;;31.26;75.00
23223;BME280;11780;13.904;100.620;2023-05-31T01:53:16;100809.19;;;31.26;74.90
23223;BME280;11780;13.904;100.620;2023-05-31T01:55:47;100805.63;;;31.26;74.69
23223;BME280;11780;13.904;100.620;2023-05-31T01:58:17;100801.53;;;31.23;74.84
23223;BME280;11780;13.904;100.620;2023-05-31T02:00:49;100811.16;;;31.26;74.65
23223;BME280;11780;13.904;100.620;2023-05-31T02:03:20;100814.22;;;31.24;74.75
23223;BME280;11780;13.904;100.620;2023-05-31T02:05:59;100801.88;;;31.31;74.38
23223;BME280;11780;13.904;100.620;2023-05-31T02:08:30;100801.88;;;31.31;74.34
23223;BME280;11780;13.904;100.620;2023-05-31T02:11:01;100794.22;;;31.27;74.35
23223;BME280;11780;13.904;100.620;2023-05-31T02:13:31;100801.72;;;31.27;74.06
23223;BME280;11780;13.904;100.620;2023-05-31T02:16:02;100797.00;;;31.27;73.58
23223;BME280;11780;13.904;100.620;2023-05-31T02:18:35;100802.53;;;31.27;73.12
23223;BME280;11780;13.904;100.620;2023-05-31T02:21:06;100799.13;;;31.31;72.74
23223;BME280;11780;13.904;100.620;2023-05-31T02:23:37;100802.22;;;31.29;72.14
23223;BME280;11780;13.904;100.620;2023-05-31T02:26:09;100792.13;;;31.33;71.83
23223;BME280;11780;13.904;100.620;2023-05-31T02:28:39;100790.00;;;31.30;72.31
23223;BME280;11780;13.904;100.620;2023-05-31T02:31:10;100793.59;;;31.31;71.71
23223;BME280;11780;13.904;100.620;2023-05-31T02:33:41;100792.75;;;31.30;71.36
23223;BME280;11780;13.904;100.620;2023-05-31T02:36:14;100799.59;;;31.33;71.39
23223;BME280;11780;13.904;100.620;2023-05-31T02:38:45;100805.63;;;31.35;70.99
23223;BME280;11780;13.904;100.620;2023-05-31T02:41:15;100803.66;;;31.35;71.41
23223;BME280;11780;13.904;100.620;2023-05-31T02:43:45;100799.75;;;31.36;71.26
23223;BME280;11780;13.904;100.620;2023-05-31T02:46:16;100799.41;;;31.38;71.17
23223;BME280;11780;13.904;100.620;2023-05-31T02:48:46;100807.25;;;31.36;70.81
23223;BME280;11780;13.904;100.620;2023-05-31T02:51:17;100804.94;;;31.38;70.45
23223;BME280;11780;13.904;100.620;2023-05-31T02:54:05;100806.44;;;31.35;70.57
23223;BME280;11780;13.904;100.620;2023-05-31T02:56:37;100807.72;;;31.38;70.12
23223;BME280;11780;13.904;100.620;2023-05-31T02:59:30;100808.22;;;31.40;70.35
23223;BME280;11780;13.904;100.620;2023-05-31T03:02:04;100793.25;;;31.41;69.77
23223;BME280;11780;13.904;100.620;2023-05-31T03:04:40;100785.78;;;31.41;70.21
23223;BME280;11780;13.904;100.620;2023-05-31T03:07:15;100788.22;;;31.43;69.82
23223;BME280;11780;13.904;100.620;2023-05-31T03:09:46;100785.44;;;31.43;69.71
23223;BME280;11780;13.904;100.620;2023-05-31T03:12:16;100784.31;;;31.44;69.57
23223;BME280;11780;13.904;100.620;2023-05-31T03:14:48;100787.06;;;31.44;69.71
23223;BME280;11780;13.904;100.620;2023-05-31T03:17:18;100783.97;;;31.46;69.69
23223;BME280;11780;13.904;100.620;2023-05-31T03:19:50;100793.09;;;31.46;69.99
23223;BME280;11780;13.904;100.620;2023-05-31T03:22:20;100790.66;;;31.44;70.12
23223;BME280;11780;13.904;100.620;2023-05-31T03:24:52;100794.72;;;31.47;69.29
23223;BME280;11780;13.904;100.620;2023-05-31T03:27:23;100789.19;;;31.47;69.82
23223;BME280;11780;13.904;100.620;2023-05-31T03:29:53;100786.09;;;31.49;68.85
23223;BME280;11780;13.904;100.620;2023-05-31T03:32:24;100786.44;;;31.47;69.15
23223;BME280;11780;13.904;100.620;2023-05-31T03:34:54;100789.19;;;31.47;68.71
23223;BME280;11780;13.904;100.620;2023-05-31T03:37:25;100781.69;;;31.48;68.95
23223;BME280;11780;13.904;100.620;2023-05-31T03:40:05;100782.03;;;31.46;68.34
23223;BME280;11780;13.904;100.620;2023-05-31T03:42:36;100777.47;;;31.50;68.35
23223;BME280;11780;13.904;100.620;2023-05-31T03:45:08;100770.31;;;31.49;68.00
23223;BME280;11780;13.904;100.620;2023-05-31T03:47:39;100771.13;;;31.50;67.85
23223;BME280;11780;13.904;100.620;2023-05-31T03:50:10;100768.06;;;31.51;67.39
23223;BME280;11780;13.904;100.620;2023-05-31T03:52:43;100764.94;;;31.53;67.59
23223;BME280;11780;13.904;100.620;2023-05-31T03:55:15;100761.84;;;31.54;67.77
23223;BME280;11780;13.904;100.620;2023-05-31T03:57:47;100759.91;;;31.55;67.50
23223;BME280;11780;13.904;100.620;2023-05-31T04:00:19;100757.00;;;31.51;67.37
23223;BME280;11780;13.904;100.620;2023-05-31T04:02:51;100761.53;;;31.56;67.43
23223;BME280;11780;13.904;100.620;2023-05-31T04:05:33;100746.56;;;31.57;66.86
23223;BME280;11780;13.904;100.620;2023-05-31T04:08:03;100748.84;;;31.55;67.59
23223;BME280;11780;13.904;100.620;2023-05-31T04:10:34;100739.41;;;31.56;67.68
23223;BME280;11780;13.904;100.620;2023-05-31T04:13:06;100737.44;;;31.56;67.18
23223;BME280;11780;13.904;100.620;2023-05-31T04:15:36;100740.69;;;31.58;66.84
23223;BME280;11780;13.904;100.620;2023-05-31T04:18:07;100726.88;;;31.58;66.67
23223;BME280;11780;13.904;100.620;2023-05-31T04:20:38;100730.47;;;31.59;66.57
23223;BME280;11780;13.904;100.620;2023-05-31T04:23:09;100729.66;;;31.58;66.71
23223;BME280;11780;13.904;100.620;2023-05-31T04:25:40;100735.66;;;31.61;67.09
23223;BME280;11780;13.904;100.620;2023-05-31T04:28:12;100734.53;;;31.62;66.44
23223;BME280;11780;13.904;100.620;2023-05-31T04:30:43;100724.59;;;31.61;66.56
23223;BME280;11780;13.904;100.620;2023-05-31T04:33:14;100718.91;;;31.66;66.28
23223;BME280;11780;13.904;100.620;2023-05-31T04:35:47;100719.69;;;31.66;66.02
23223;BME280;11780;13.904;100.620;2023-05-31T04:38:18;100718.91;;;31.66;66.06
23223;BME280;11780;13.904;100.620;2023-05-31T04:40:49;100715.00;;;31.67;66.02
23223;BME280;11780;13.904;100.620;2023-05-31T04:43:21;100700.03;;;31.68;65.66
23223;BME280;11780;13.904;100.620;2023-05-31T04:45:53;100707.16;;;31.69;65.83
23223;BME280;11780;13.904;100.620;2023-05-31T04:48:24;100696.31;;;31.72;65.54
23223;BME280;11780;13.904;100.620;2023-05-31T04:50:58;100692.72;;;31.72;65.26
23223;BME280;11780;13.904;100.620;2023-05-31T04:53:28;100688.97;;;31.68;65.67
23223;BME280;11780;13.904;100.620;2023-05-31T04:55:59;100677.56;;;31.78;64.11
23223;BME280;11780;13.904;100.620;2023-05-31T04:58:34;100671.22;;;31.78;64.41
23223;BME280;11780;13.904;100.620;2023-05-31T05:01:05;100662.47;;;31.76;64.62
23223;BME280;11780;13.904;100.620;2023-05-31T05:03:45;100655.31;;;31.74;64.60
23223;BME280;11780;13.904;100.620;2023-05-31T05:06:17;100657.59;;;31.72;64.91
23223;BME280;11780;13.904;100.620;2023-05-31T05:08:48;100641.97;;;31.77;64.07
23223;BME280;11780;13.904;100.620;2023-05-31T05:11:18;100638.03;;;31.78;63.92
23223;BME280;11780;13.904;100.620;2023-05-31T05:13:50;100632.19;;;31.79;63.77
23223;BME280;11780;13.904;100.620;2023-05-31T05:16:23;100627.78;;;31.78;63.95
23223;BME280;11780;13.904;100.620;2023-05-31T05:18:54;100621.06;;;31.88;63.23
23223;BME280;11780;13.904;100.620;2023-05-31T05:21:25;100612.44;;;31.89;63.01
23223;BME280;11780;13.904;100.620;2023-05-31T05:23:59;100617.34;;;31.84;63.92
23223;BME280;11780;13.904;100.620;2023-05-31T05:26:29;100612.16;;;31.82;63.73
23223;BME280;11780;13.904;100.620;2023-05-31T05:29:00;100612.44;;;31.89;63.27
23223;BME280;11780;13.904;100.620;2023-05-31T05:31:32;100609.13;;;31.96;62.91
23223;BME280;11780;13.904;100.620;2023-05-31T05:34:05;100603.13;;;31.94;63.10
23223;BME280;11780;13.904;100.620;2023-05-31T05:36:36;100605.09;;;31.94;63.01
23223;BME280;11780;13.904;100.620;2023-05-31T05:39:10;100591.25;;;31.94;63.07
23223;BME280;11780;13.904;100.620;2023-05-31T05:41:41;100587.22;;;31.91;63.34
23223;BME280;11780;13.904;100.620;2023-05-31T05:44:11;100577.78;;;31.92;62.85
23223;BME280;11780;13.904;100.620;2023-05-31T05:46:43;100571.56;;;31.95;63.08
23223;BME280;11780;13.904;100.620;2023-05-31T05:49:13;100574.19;;;31.92;62.91
23223;BME280;11780;13.904;100.620;2023-05-31T05:51:47;100574.66;;;31.94;62.69
23223;BME280;11780;13.904;100.620;2023-05-31T05:54:17;100569.59;;;31.96;62.54
23223;BME280;11780;13.904;100.620;2023-05-31T05:56:48;100571.41;;;31.92;63.31
23223;BME280;11780;13.904;100.620;2023-05-31T05:59:19;100559.69;;;31.95;62.95
23223;BME280;11780;13.904;100.620;2023-05-31T06:02:02;100545.03;;;31.94;62.89
23223;BME280;11780;13.904;100.620;2023-05-31T06:04:33;100543.75;;;31.92;63.12
23223;BME280;11780;13.904;100.620;2023-05-31T06:07:04;100540.59;;;32.02;62.45
23223;BME280;11780;13.904;100.620;2023-05-31T06:09:35;100541.06;;;32.04;62.29
23223;BME280;11780;13.904;100.620;2023-05-31T06:12:06;100533.72;;;32.08;62.08
23223;BME280;11780;13.904;100.620;2023-05-31T06:14:39;100522.16;;;32.06;62.27
23223;BME280;11780;13.904;100.620;2023-05-31T06:17:10;100523.78;;;32.07;62.28
23223;BME280;11780;13.904;100.620;2023-05-31T06:19:40;100519.09;;;32.08;62.07
23223;BME280;11780;13.904;100.620;2023-05-31T06:22:12;100514.34;;;32.08;62.58
23223;BME280;11780;13.904;100.620;2023-05-31T06:24:42;100515.63;;;32.11;62.38
23223;BME280;11780;13.904;100.620;2023-05-31T06:27:13;100511.38;;;32.13;62.34
23223;BME280;11780;13.904;100.620;2023-05-31T06:29:45;100505.16;;;32.16;61.89
23223;BME280;11780;13.904;100.620;2023-05-31T06:32:21;100503.09;;;32.13;62.16
23223;BME280;11780;13.904;100.620;2023-05-31T06:34:52;100501.47;;;32.12;62.08
23223;BME280;11780;13.904;100.620;2023-05-31T06:37:23;100497.19;;;32.15;61.94
23223;BME280;11780;13.904;100.620;2023-05-31T06:39:53;100496.72;;;32.13;61.95
23223;BME280;11780;13.904;100.620;2023-05-31T06:42:24;100486.47;;;32.13;62.25
23223;BME280;11780;13.904;100.620;2023-05-31T06:44:57;100489.72;;;32.15;61.81
23223;BME280;11780;13.904;100.620;2023-05-31T06:47:50;100474.28;;;32.14;61.64
23223;BME280;11780;13.904;100.620;2023-05-31T06:50:21;100474.72;;;32.16;61.59
23223;BME280;11780;13.904;100.620;2023-05-31T06:53:11;100475.19;;;32.18;61.50
23223;BME280;11780;13.904;100.620;2023-05-31T06:55:46;100470.00;;;32.17;61.46
23223;BME280;11780;13.904;100.620;2023-05-31T06:58:20;100458.09;;;32.16;61.14
23223;BME280;11780;13.904;100.620;2023-05-31T07:00:51;100454.56;;;32.16;61.19
23223;BME280;11780;13.904;100.620;2023-05-31T07:03:21;100454.06;;;32.14;61.58
23223;BME280;11780;13.904;100.620;2023-05-31T07:05:52;100445.22;;;32.20;60.69
23223;BME280;11780;13.904;100.620;2023-05-31T07:08:23;100439.56;;;32.17;61.05
23223;BME280;11780;13.904;100.620;2023-05-31T07:11:31;100435.97;;;32.16;60.74
23223;BME280;11780;13.904;100.620;2023-05-31T07:14:03;100423.75;;;32.17;60.34
23223;BME280;11780;13.904;100.620;2023-05-31T07:16:35;100418.38;;;32.21;60.48
23223;BME280;11780;13.904;100.620;2023-05-31T07:19:06;100412.13;;;32.24;60.00
23223;BME280;11780;13.904;100.620;2023-05-31T07:21:39;100415.72;;;32.25;59.75
23223;BME280;11780;13.904;100.620;2023-05-31T07:24:09;100409.25;;;32.20;59.79
23223;BME280;11780;13.904;100.620;2023-05-31T07:26:40;100409.72;;;32.23;60.00
23223;BME280;11780;13.904;100.620;2023-05-31T07:29:10;100398.66;;;32.23;59.63
23223;BME280;11780;13.904;100.620;2023-05-31T07:31:41;100390.72;;;32.21;59.99
23223;BME280;11780;13.904;100.620;2023-05-31T07:34:11;100396.34;;;32.25;60.23
23223;BME280;11780;13.904;100.620;2023-05-31T07:36:42;100389.34;;;32.27;60.01
23223;BME280;11780;13.904;100.620;2023-05-31T07:39:13;100389.19;;;32.24;60.62
23223;BME280;11780;13.904;100.620;2023-05-31T07:41:44;100385.63;;;32.23;60.40
23223;BME280;11780;13.904;100.620;2023-05-31T07:44:14;100392.94;;;32.28;60.68
23223;BME280;11780;13.904;100.620;2023-05-31T07:46:46;100389.50;;;32.31;60.88
23223;BME280;11780;13.904;100.620;2023-05-31T07:49:16;100382.47;;;32.33;61.23
23223;BME280;11780;13.904;100.620;2023-05-31T07:51:47;100375.09;;;32.38;61.12
23223;BME280;11780;13.904;100.620;2023-05-31T07:54:17;100373.00;;;32.34;61.23
23223;BME280;11780;13.904;100.620;2023-05-31T07:56:47;100365.63;;;32.39;61.42
23223;BME280;11780;13.904;100.620;2023-05-31T07:59:18;100370.81;;;32.40;61.36
23223;BME280;11780;13.904;100.620;2023-05-31T08:01:49;100361.84;;;32.43;61.68
23223;BME280;11780;13.904;100.620;2023-05-31T08:04:20;100362.97;;;32.42;61.88
23223;BME280;11780;13.904;100.620;2023-05-31T08:06:50;100360.22;;;32.42;61.87
23223;BME280;11780;13.904;100.620;2023-05-31T08:09:20;100359.53;;;32.45;61.71
23223;BME280;11780;13.904;100.620;2023-05-31T08:11:52;100365.41;;;32.44;61.80
23223;BME280;11780;13.904;100.620;2023-05-31T08:14:22;100342.47;;;32.43;61.80
23223;BME280;11780;13.904;100.620;2023-05-31T08:16:53;100348.69;;;32.40;62.12
23223;BME280;11780;13.904;100.620;2023-05-31T08:19:23;100346.50;;;32.46;61.99
23223;BME280;11780;13.904;100.620;2023-05-31T08:21:53;100338.53;;;32.44;61.71
23223;BME280;11780;13.904;100.620;2023-05-31T08:24:24;100339.69;;;32.43;61.97
23223;BME280;11780;13.904;100.620;2023-05-31T08:26:54;100332.66;;;32.46;62.15
23223;BME280;11780;13.904;100.620;2023-05-31T08:29:26;100330.34;;;32.48;62.22
23223;BME280;11780;13.904;100.620;2023-05-31T08:31:57;100330.81;;;32.50;61.84
23223;BME280;11780;13.904;100.620;2023-05-31T08:34:28;100335.41;;;32.46;62.06
23223;BME280;11780;13.904;100.620;2023-05-31T08:37:35;100329.09;;;32.45;62.07
23223;BME280;11780;13.904;100.620;2023-05-31T08:40:07;100325.50;;;32.45;62.21
23223;BME280;11780;13.904;100.620;2023-05-31T08:42:39;100329.53;;;32.47;62.24
23223;BME280;11780;13.904;100.620;2023-05-31T08:45:10;100330.13;;;32.53;61.89
23223;BME280;11780;13.904;100.620;2023-05-31T08:47:45;100316.63;;;32.52;61.89
23223;BME280;11780;13.904;100.620;2023-05-31T08:50:22;100315.00;;;32.50;62.00
23223;BME280;11780;13.904;100.620;2023-05-31T08:52:56;100314.09;;;32.46;62.23
23223;BME280;11780;13.904;100.620;2023-05-31T08:55:26;100315.25;;;32.45;62.05
23223;BME280;11780;13.904;100.620;2023-05-31T08:57:58;100299.91;;;32.48;62.02
23223;BME280;11780;13.904;100.620;2023-05-31T09:00:31;100300.69;;;32.48;62.34
23223;BME280;11780;13.904;100.620;2023-05-31T09:03:01;100298.28;;;32.47;62.20
23223;BME280;11780;13.904;100.620;2023-05-31T09:05:33;100299.06;;;32.47;62.30
23223;BME280;11780;13.904;100.620;2023-05-31T09:08:04;100311.75;;;32.48;62.25
23223;BME280;11780;13.904;100.620;2023-05-31T09:10:35;100316.63;;;32.52;62.29
23223;BME280;11780;13.904;100.620;2023-05-31T09:13:06;100310.63;;;32.49;61.91
23223;BME280;11780;13.904;100.620;2023-05-31T09:15:37;100311.66;;;32.45;62.21
23223;BME280;11780;13.904;100.620;2023-05-31T09:18:15;100304.59;;;32.47;62.36
23223;BME280;11780;13.904;100.620;2023-05-31T09:20:49;100298.28;;;32.47;62.08
23223;BME280;11780;13.904;100.620;2023-05-31T09:23:22;100299.91;;;32.48;62.07
23223;BME280;11780;13.904;100.620;2023-05-31T09:25:53;100309.47;;;32.50;61.85
23223;BME280;11780;13.904;100.620;2023-05-31T09:28:23;100301.41;;;32.45;62.39
23223;BME280;11780;13.904;100.620;2023-05-31T09:33:41;100308.66;;;32.50;62.18
23223;BME280;11780;13.904;100.620;2023-05-31T09:36:12;100309.00;;;32.48;62.14
23223;BME280;11780;13.904;100.620;2023-05-31T09:38:43;100302.66;;;32.48;62.11
23223;BME280;11780;13.904;100.620;2023-05-31T09:41:15;100301.41;;;32.45;62.39
23223;BME280;11780;13.904;100.620;2023-05-31T09:43:48;100299.53;;;32.49;61.75
23223;BME280;11780;13.904;100.620;2023-05-31T09:46:20;100290.75;;;32.47;62.20
23223;BME280;11780;13.904;100.620;2023-05-31T09:49:04;100295.16;;;32.48;62.16
23223;BME280;11780;13.904;100.620;2023-05-31T09:51:36;100288.59;;;32.53;61.68
23223;BME280;11780;13.904;100.620;2023-05-31T09:54:14;100289.84;;;32.56;62.29
23223;BME280;11780;13.904;100.620;2023-05-31T09:56:47;100278.44;;;32.57;61.83
23223;BME280;11780;13.904;100.620;2023-05-31T09:59:18;100279.47;;;32.53;61.92
23223;BME280;11780;13.904;100.620;2023-05-31T10:01:49;100283.75;;;32.50;62.14
23223;BME280;11780;13.904;100.620;2023-05-31T10:04:20;100287.44;;;32.54;61.99
23223;BME280;11780;13.904;100.620;2023-05-31T10:06:51;100288.94;;;32.52;62.38
23223;BME280;11780;13.904;100.620;2023-05-31T10:09:21;100292.16;;;32.54;61.88
23223;BME280;11780;13.904;100.620;2023-05-31T10:11:53;100294.94;;;32.54;61.49
23223;BME280;11780;13.904;100.620;2023-05-31T10:14:28;100294.72;;;32.59;61.94
23223;BME280;11780;13.904;100.620;2023-05-31T10:17:02;100300.72;;;32.61;62.28
23223;BME280;11780;13.904;100.620;2023-05-31T10:19:40;100299.09;;;32.60;62.14
23223;BME280;11780;13.904;100.620;2023-05-31T10:22:12;100292.50;;;32.64;62.15
23223;BME280;11780;13.904;100.620;2023-05-31T10:25:06;100287.75;;;32.65;62.04
23223;BME280;11780;13.904;100.620;2023-05-31T10:27:44;100272.66;;;32.62;61.70
23223;BME280;11780;13.904;100.620;2023-05-31T10:30:16;100283.16;;;32.69;61.97
23223;BME280;11780;13.904;100.620;2023-05-31T10:33:06;100280.38;;;32.69;61.92
23223;BME280;11780;13.904;100.620;2023-05-31T10:35:37;100277.63;;;32.69;61.73
23223;BME280;11780;13.904;100.620;2023-05-31T10:38:08;100272.44;;;32.68;61.77
23223;BME280;11780;13.904;100.620;2023-05-31T10:40:56;100284.78;;;32.70;61.94
23223;BME280;11780;13.904;100.620;2023-05-31T10:43:39;100283.16;;;32.69;61.72
23223;BME280;11780;13.904;100.620;2023-05-31T10:46:16;100277.63;;;32.69;62.15
23223;BME280;11780;13.904;100.620;2023-05-31T10:48:55;100273.22;;;32.68;61.96
23223;BME280;11780;13.904;100.620;2023-05-31T10:51:42;100283.75;;;32.62;62.32
23223;BME280;11780;13.904;100.620;2023-05-31T10:54:20;100280.63;;;32.64;61.86
23223;BME280;11780;13.904;100.620;2023-05-31T10:56:54;100291.00;;;32.67;62.08
23223;BME280;11780;13.904;100.620;2023-05-31T10:59:26;100306.00;;;32.66;62.32
23223;BME280;11780;13.904;100.620;2023-05-31T11:01:57;100310.75;;;32.65;62.57
23223;BME280;11780;13.904;100.620;2023-05-31T11:04:29;100310.06;;;32.69;62.43
23223;BME280;11780;13.904;100.620;2023-05-31T11:07:14;100308.91;;;32.70;62.37
23223;BME280;11780;13.904;100.620;2023-05-31T13:30:13;100540.13;;;32.21;66.68
23223;BME280;11780;13.904;100.620;2023-05-31T13:32:44;100545.16;;;32.28;66.93
23223;BME280;11780;13.904;100.620;2023-05-31T13:35:15;100555.44;;;32.40;66.57
23223;BME280;11780;13.904;100.620;2023-05-31T13:37:45;100562.41;;;32.46;66.91
23223;BME280;11780;13.904;100.620;2023-05-31T13:40:15;100567.41;;;32.53;66.76
23223;BME280;11780;13.904;100.620;2023-05-31T13:42:46;100573.06;;;32.56;66.66
23223;BME280;11780;13.904;100.620;2023-05-31T13:45:18;100576.66;;;32.57;66.75
23223;BME280;11780;13.904;100.620;2023-05-31T13:47:48;100587.53;;;32.62;66.81
23223;BME280;11780;13.904;100.620;2023-05-31T13:50:18;100581.06;;;32.58;66.90
23223;BME280;11780;13.904;100.620;2023-05-31T13:52:49;100584.97;;;32.57;66.84
23223;BME280;11780;13.904;100.620;2023-05-31T13:55:19;100605.38;;;32.52;67.04
23223;BME280;11780;13.904;100.620;2023-05-31T13:57:50;100608.97;;;32.65;66.74
23223;BME280;11780;13.904;100.620;2023-05-31T14:00:20;100615.34;;;32.65;66.82
23223;BME280;11780;13.904;100.620;2023-05-31T14:02:53;100634.84;;;32.69;67.07
23223;BME280;11780;13.904;100.620;2023-05-31T14:05:25;100628.28;;;32.74;66.68
23223;BME280;11780;13.904;100.620;2023-05-31T14:07:58;100629.72;;;32.80;66.69
23223;BME280;11780;13.904;100.620;2023-05-31T14:10:29;100639.53;;;32.77;67.08
23223;BME280;11780;13.904;100.620;2023-05-31T14:12:59;100632.81;;;32.78;67.09
23223;BME280;11780;13.904;100.620;2023-05-31T14:15:29;100644.72;;;32.79;67.03
23223;BME280;11780;13.904;100.620;2023-05-31T14:17:59;100641.59;;;32.80;67.03
23223;BME280;11780;13.904;100.620;2023-05-31T14:20:30;100642.44;;;32.81;67.22
23223;BME280;11780;13.904;100.620;2023-05-31T14:23:02;100638.66;;;32.86;67.05
23223;BME280;11780;13.904;100.620;2023-05-31T14:25:33;100634.94;;;32.82;66.93
23223;BME280;11780;13.904;100.620;2023-05-31T14:28:03;100636.28;;;32.75;67.05
23223;BME280;11780;13.904;100.620;2023-05-31T14:30:33;100641.59;;;32.80;67.05
23223;BME280;11780;13.904;100.620;2023-05-31T14:33:04;100639.53;;;32.77;66.92
23223;BME280;11780;13.904;100.620;2023-05-31T14:35:34;100642.56;;;32.85;66.82
23223;BME280;11780;13.904;100.620;2023-05-31T14:38:05;100640.94;;;32.84;66.74
23223;BME280;11780;13.904;100.620;2023-05-31T14:40:54;100652.84;;;32.84;66.73
23223;BME280;11780;13.904;100.620;2023-05-31T14:43:24;100654.00;;;32.83;66.64
23223;BME280;11780;13.904;100.620;2023-05-31T14:45:55;100669.66;;;32.79;66.67
23223;BME280;11780;13.904;100.620;2023-05-31T14:48:25;100670.44;;;32.79;66.62
23223;BME280;11780;13.904;100.620;2023-05-31T14:50:56;100663.63;;;32.77;66.49
23223;BME280;11780;13.904;100.620;2023-05-31T14:53:26;100670.94;;;32.82;66.52
23223;BME280;11780;13.904;100.620;2023-05-31T14:55:57;100663.75;;;32.80;66.49
23223;BME280;11780;13.904;100.620;2023-05-31T14:58:45;100674.03;;;32.80;66.53
23223;BME280;11780;13.904;100.620;2023-05-31T15:01:15;100675.19;;;32.79;66.57
23223;BME280;11780;13.904;100.620;2023-05-31T15:03:45;100680.72;;;32.79;66.51
23223;BME280;11780;13.904;100.620;2023-05-31T15:06:15;100682.34;;;32.80;66.76
23223;BME280;11780;13.904;100.620;2023-05-31T15:08:49;100682.50;;;32.84;66.72
23223;BME280;11780;13.904;100.620;2023-05-31T15:11:21;100683.13;;;32.80;66.65
23223;BME280;11780;13.904;100.620;2023-05-31T15:13:52;100687.25;;;32.83;66.65
23223;BME280;11780;13.904;100.620;2023-05-31T15:16:23;100690.81;;;32.84;66.65
23223;BME280;11780;13.904;100.620;2023-05-31T15:18:56;100701.56;;;32.85;66.54
23223;BME280;11780;13.904;100.620;2023-05-31T15:21:27;100705.25;;;32.68;67.12
23223;BME280;11780;13.904;100.620;2023-05-31T15:23:57;100701.50;;;32.64;67.40
23223;BME280;11780;13.904;100.620;2023-05-31T15:26:28;100709.69;;;32.60;67.09
23223;BME280;11780;13.904;100.620;2023-05-31T15:28:58;100702.06;;;32.57;67.19